Flight Track Log - Related Links

Times and Time Zones

All times are in EDT time to prevent confusion due to time zone crossing. See the TAM3216 flight status page for this flight to view local times or setup timezone preferences in your user account.


Time Position Orientation Groundspeed Altitude Reporting Facility
EDT Latitude Longitude Course Direction KTS MPH feet Rate Location/Type
Tue 02:40:00 PM -10.7450 -38.3798 359° North  Level Estimated
Tue 02:41:00 PM -10.6508 -38.3819 359° North  Level Estimated
Tue 02:42:00 PM -10.5566 -38.3840 359° North  Level Estimated
Tue 02:43:00 PM -10.4624 -38.3861 359° North  Level Estimated
Tue 02:44:00 PM -10.3682 -38.3882 359° North  Level Estimated
Tue 02:45:00 PM -10.2740 -38.3903 359° North  Level Estimated
Tue 02:46:00 PM -10.1799 -38.3924 359° North  Level Estimated
Tue 02:47:00 PM -10.0857 -38.3945 359° North  Level Estimated
Tue 02:48:00 PM -9.9915 -38.3965 359° North  Level Estimated
Tue 02:49:00 PM -9.8973 -38.3986 359° North  Level Estimated
Tue 02:50:00 PM -9.8032 -38.4007 359° North  Level Estimated
Tue 02:51:00 PM -9.7090 -38.4028 359° North  Level Estimated
Tue 02:52:00 PM -9.6148 -38.4049 359° North  Level Estimated
Tue 02:53:00 PM -9.5206 -38.4070 359° North  Level Estimated
Tue 02:54:00 PM -9.4264 -38.4091 359° North  Level Estimated
Tue 02:55:00 PM -9.3322 -38.4112 359° North  Level Estimated
Tue 02:56:00 PM -9.2381 -38.4132 359° North  Level Estimated
Tue 02:57:00 PM -9.1439 -38.4153 359° North  Level Estimated
Tue 02:58:00 PM -9.0497 -38.4174 359° North  Level Estimated
Tue 02:59:00 PM -8.9555 -38.4195 359° North  Level Estimated
Tue 03:00:00 PM -8.8614 -38.4216 359° North  Level Estimated
Tue 03:01:00 PM -8.7672 -38.4236 359° North  Level Estimated
Tue 03:02:00 PM -8.6730 -38.4257 359° North  Level Estimated
Tue 03:03:00 PM -8.5788 -38.4278 359° North  Level Estimated
Tue 03:04:00 PM -8.4688 -38.4302 359° North  Level Estimated
Tue 03:05:00 PM -8.3587 -38.4327 359° North  Level Estimated
Tue 03:06:00 PM -8.2486 -38.4351 359° North  Level Estimated
Tue 03:07:00 PM -8.1386 -38.4375 359° North  Level Estimated
Tue 03:08:00 PM -8.0285 -38.4399 359° North  Level Estimated
Tue 03:09:00 PM -7.9184 -38.4423 359° North  Level Estimated
Tue 03:10:00 PM -7.8084 -38.4448 359° North  Level Estimated
Tue 03:11:00 PM -7.6983 -38.4472 359° North  Level Estimated
Tue 03:12:00 PM -7.5883 -38.4496 359° North  Level Estimated
Tue 03:13:00 PM -7.4782 -38.4520 359° North  Level Estimated
Tue 03:14:00 PM -7.3682 -38.4544 359° North  Level Estimated
Tue 03:15:00 PM -7.2581 -38.4568 359° North  Level Estimated
Tue 03:16:00 PM -7.1480 -38.4592 359° North  Level Estimated
Tue 03:17:00 PM -7.0380 -38.4616 359° North  Level Estimated
Tue 03:18:00 PM -6.9279 -38.4640 359° North  Level Estimated
Tue 03:19:00 PM -6.8179 -38.4664 359° North  Level Estimated
Tue 03:20:00 PM -6.7078 -38.4688 359° North  Level Estimated
Tue 03:21:00 PM -6.5977 -38.4712 359° North  Level Estimated
Tue 03:22:00 PM -6.4877 -38.4737 359° North  Level Estimated
Tue 03:23:00 PM -6.3776 -38.4761 359° North  Level Estimated
Tue 03:24:00 PM -6.2675 -38.4785 359° North  Level Estimated
Tue 03:25:00 PM -6.1575 -38.4809 359° North  Level Estimated
Tue 03:26:00 PM -6.0474 -38.4832 359° North  Level Estimated
Tue 03:27:00 PM -5.9374 -38.4856 359° North  Level Estimated
Tue 03:28:00 PM -5.8273 -38.4880 359° North  Level Estimated
Tue 03:29:00 PM -5.7172 -38.4905 359° North  Level Estimated
Tue 03:30:00 PM -5.6072 -38.4928 359° North  Level Estimated
Tue 03:31:00 PM -5.4971 -38.4952 359° North  Level Estimated
Tue 03:32:00 PM -5.3871 -38.4976 359° North  Level Estimated
Tue 03:33:00 PM -5.2770 -38.5000 359° North  Level Estimated
Tue 03:34:00 PM -5.1670 -38.5024 359° North  Level Estimated
Tue 03:35:00 PM -5.0569 -38.5048 359° North  Level Estimated
Tue 03:36:00 PM -4.9468 -38.5072 359° North  Level Estimated
Tue 03:37:00 PM -4.8368 -38.5096 359° North  Level Estimated
Tue 03:38:00 PM -4.7267 -38.5120 359° North  Level Estimated
Tue 03:39:00 PM -4.6167 -38.5144 359° North  Level Estimated
Tue 03:40:00 PM -4.5066 -38.5167 359° North  Level Estimated
Tue 03:41:00 PM -4.3965 -38.5191 359° North  Level Estimated
Tue 03:42:00 PM -4.2865 -38.5215 359° North  Level Estimated
Tue 03:43:00 PM -4.1764 -38.5239 359° North  Level Estimated
Tue 03:44:00 PM -4.0663 -38.5263 359° North  Level Estimated

Login

Don't have an account? Register now (free) for customized features, flight alerts, and more!